Time;durP1;ratioP1;P1;durP2;ratioP2;P2;SDS_P1;SDS_P2;PMS_P1;PMS_P2;Temp;Humidity;BMP_temperature;BMP_pressure;BME280_temperature;BME280_humidity;BME280_pressure;Samples;Min_cycle;Max_cycle;Signal;HPM_P1;HPM_P2
2021/06/16 00:02:29;;;;;;;1.17;0.45;;;;;;;9.58;100.00;99762.69;5071495;28;20397;-46
2021/06/16 00:05:32;;;;;;;0.85;0.50;;;;;;;9.54;100.00;99756.53;5071469;28;20067;-46
2021/06/16 00:08:36;;;;;;;1.40;0.50;;;;;;;9.54;100.00;99756.53;5071567;28;20063;-46
2021/06/16 00:11:39;;;;;;;1.55;0.88;;;;;;;9.55;100.00;99749.72;5071274;28;20039;-47
2021/06/16 00:14:42;;;;;;;0.68;0.55;;;;;;;9.55;100.00;99752.50;5071379;28;20048;-46
2021/06/16 00:17:46;;;;;;;1.45;0.80;;;;;;;9.51;100.00;99740.78;5073267;28;20496;-46
2021/06/16 00:20:50;;;;;;;4.13;0.77;;;;;;;9.53;100.00;99739.06;5074981;28;20067;-46
2021/06/16 00:23:53;;;;;;;0.70;0.43;;;;;;;9.53;100.00;99741.09;5074844;28;20043;-46
2021/06/16 00:26:56;;;;;;;5.15;1.23;;;;;;;9.55;100.00;99733.81;5075012;28;20050;-46
2021/06/16 00:30:00;;;;;;;1.15;0.63;;;;;;;9.56;100.00;99726.25;5074805;28;20039;-46
2021/06/16 00:33:03;;;;;;;0.50;0.50;;;;;;;9.60;100.00;99721.28;5074852;28;20047;-46
2021/06/16 00:36:07;;;;;;;8.50;0.93;;;;;;;9.59;100.00;99720.53;5074754;28;20508;-46
2021/06/16 00:39:11;;;;;;;0.63;0.40;;;;;;;9.61;100.00;99722.81;5074691;28;20051;-46
2021/06/16 00:42:15;;;;;;;11.60;0.90;;;;;;;9.66;100.00;99722.94;5074589;28;20043;-46
2021/06/16 00:45:19;;;;;;;2.22;1.02;;;;;;;9.68;100.00;99717.66;5074584;28;20047;-46
2021/06/16 00:48:22;;;;;;;0.75;0.75;;;;;;;9.70;100.00;99714.44;5074705;28;20508;-46
2021/06/16 00:51:25;;;;;;;4.70;0.70;;;;;;;9.69;100.00;99716.44;5074767;28;20043;-46
2021/06/16 00:54:33;;;;;;;1.75;0.85;;;;;;;9.71;100.00;99711.16;5074226;28;20504;-56
2021/06/16 00:57:37;;;;;;;0.82;0.73;;;;;;;9.72;100.00;99709.16;5074162;28;20059;-55
2021/06/16 01:00:55;;;;;;;0.63;0.60;;;;;;;9.72;100.00;99700.81;5074064;28;20055;-55
2021/06/16 01:04:19;;;;;;;0.35;0.35;;;;;;;9.70;100.00;99700.53;5074329;28;20059;-55
2021/06/16 01:07:27;;;;;;;1.13;0.30;;;;;;;9.70;100.00;99703.31;5074190;28;20396;-56
2021/06/16 01:10:34;;;;;;;0.57;0.57;;;;;;;9.71;100.00;99702.81;5074069;28;20043;-55
2021/06/16 01:13:47;;;;;;;0.40;0.40;;;;;;;9.70;100.00;99701.28;5073913;28;20047;-56
2021/06/16 01:16:56;;;;;;;0.40;0.40;;;;;;;9.73;100.00;99705.13;5074046;28;20047;-46
2021/06/16 01:19:59;;;;;;;1.60;0.60;;;;;;;9.69;100.00;99707.31;5073787;28;20051;-46
2021/06/16 01:23:11;;;;;;;1.52;0.40;;;;;;;9.68;100.00;99705.78;5073980;28;20056;-46
2021/06/16 01:26:25;;;;;;;3.75;0.55;;;;;;;9.62;100.00;99696.53;5073879;28;20047;-46
2021/06/16 01:29:35;;;;;;;3.20;0.50;;;;;;;9.59;100.00;99697.50;5073053;28;20055;-46
2021/06/16 01:32:39;;;;;;;0.85;0.85;;;;;;;9.52;100.00;99692.28;5073603;28;20055;-46
2021/06/16 01:35:47;;;;;;;0.80;0.47;;;;;;;9.46;100.00;99685.84;5073561;28;20039;-46
2021/06/16 01:38:51;;;;;;;2.15;1.38;;;;;;;9.41;100.00;99683.69;5073721;28;20044;-46
2021/06/16 01:41:57;;;;;;;1.85;0.60;;;;;;;9.33;100.00;99679.75;5073546;28;20040;-46
2021/06/16 01:45:02;;;;;;;0.30;0.20;;;;;;;9.28;100.00;99683.16;5073499;28;20047;-46
2021/06/16 01:48:08;;;;;;;2.47;0.85;;;;;;;9.25;100.00;99681.34;5073460;28;20091;-46
2021/06/16 01:51:12;;;;;;;1.85;0.57;;;;;;;9.22;100.00;99676.69;5073426;28;20111;-46
2021/06/16 01:54:17;;;;;;;0.73;0.73;;;;;;;9.18;100.00;99672.06;5073360;28;20051;-46
2021/06/16 01:57:23;;;;;;;0.35;0.25;;;;;;;9.15;100.00;99675.81;5073399;28;20047;-46
2021/06/16 02:00:28;;;;;;;0.50;0.50;;;;;;;9.08;100.00;99667.81;5073067;28;20393;-46
2021/06/16 02:03:31;;;;;;;0.50;0.50;;;;;;;9.06;100.00;99661.97;5073294;28;20052;-46
2021/06/16 02:06:40;;;;;;;3.92;1.00;;;;;;;9.03;100.00;99674.00;5072939;28;20508;-46
2021/06/16 02:09:46;;;;;;;0.63;0.60;;;;;;;9.01;100.00;99670.91;5072827;28;20059;-46
2021/06/16 02:12:52;;;;;;;3.08;1.08;;;;;;;9.04;100.00;99670.00;5073203;28;20039;-46
2021/06/16 02:16:04;;;;;;;0.82;0.82;;;;;;;9.08;100.00;99665.03;5072775;28;20051;-46
2021/06/16 02:19:11;;;;;;;0.40;0.40;;;;;;;9.12;100.00;99665.63;5073060;28;20043;-46
2021/06/16 02:22:15;;;;;;;3.78;1.25;;;;;;;9.16;100.00;99660.66;5072680;28;20040;-46
2021/06/16 02:25:19;;;;;;;0.85;0.40;;;;;;;9.22;100.00;99660.03;5072823;28;20043;-46
2021/06/16 02:28:23;;;;;;;0.50;0.50;;;;;;;9.26;100.00;99663.41;5072518;28;20044;-46
2021/06/16 02:31:26;;;;;;;1.80;0.98;;;;;;;9.31;100.00;99654.44;5072543;28;20393;-46
2021/06/16 02:34:30;;;;;;;0.55;0.55;;;;;;;9.36;100.00;99646.22;5072404;28;20048;-46
2021/06/16 02:37:43;;;;;;;0.65;0.55;;;;;;;9.39;100.00;99638.94;5072407;28;20063;-46
2021/06/16 02:40:47;;;;;;;0.73;0.63;;;;;;;9.45;100.00;99637.81;5071545;28;20048;-46
2021/06/16 02:43:52;;;;;;;1.63;0.55;;;;;;;9.49;100.00;99637.63;5072229;28;20051;-47
2021/06/16 02:46:57;;;;;;;0.88;0.75;;;;;;;9.54;100.00;99639.78;5072277;28;20048;-46
2021/06/16 02:50:01;;;;;;;2.92;0.60;;;;;;;9.58;100.00;99634.78;5072304;28;20043;-46
2021/06/16 02:53:14;;;;;;;2.83;0.63;;;;;;;9.57;100.00;99633.28;5072567;28;20052;-46
2021/06/16 02:56:20;;;;;;;0.90;0.60;;;;;;;9.56;100.00;99626.16;5072050;28;20408;-46
2021/06/16 02:59:26;;;;;;;0.43;0.43;;;;;;;9.59;100.00;99625.22;5071963;28;20051;-46
2021/06/16 03:02:32;;;;;;;1.27;0.57;;;;;;;9.58;100.00;99630.00;5072135;28;20051;-46
2021/06/16 03:05:36;;;;;;;4.75;0.77;;;;;;;9.57;100.00;99619.38;5071969;28;20048;-46
2021/06/16 03:08:43;;;;;;;1.10;0.68;;;;;;;9.55;100.00;99596.84;5071970;28;20044;-46
2021/06/16 03:11:49;;;;;;;1.88;0.70;;;;;;;9.53;100.00;99593.75;5072021;28;20051;-46
2021/06/16 03:14:53;;;;;;;0.85;0.52;;;;;;;9.43;100.00;99589.50;5071955;28;20051;-46
2021/06/16 03:17:58;;;;;;;1.35;0.50;;;;;;;9.39;100.00;99588.91;5072142;28;20067;-46
2021/06/16 03:21:03;;;;;;;0.98;0.75;;;;;;;9.37;100.00;99585.84;5071988;28;20051;-46
2021/06/16 03:24:08;;;;;;;1.75;1.05;;;;;;;9.38;100.00;99579.81;5072029;28;20051;-46
2021/06/16 03:27:13;;;;;;;0.40;0.40;;;;;;;9.36;100.00;99578.72;5072043;28;20048;-46
2021/06/16 03:30:19;;;;;;;0.93;0.80;;;;;;;9.31;100.00;99584.97;5071965;28;20059;-47
2021/06/16 03:33:22;;;;;;;1.33;0.80;;;;;;;9.27;100.00;99573.25;5072103;28;20063;-46
2021/06/16 03:36:27;;;;;;;1.83;0.75;;;;;;;9.20;100.00;99576.38;5071835;28;20052;-46
2021/06/16 03:39:32;;;;;;;0.65;0.30;;;;;;;9.10;100.00;99579.22;5071659;28;20188;-46
2021/06/16 03:42:36;;;;;;;5.40;0.60;;;;;;;9.06;100.00;99584.19;5071586;28;20416;-46
2021/06/16 03:45:41;;;;;;;2.17;0.40;;;;;;;9.05;100.00;99582.63;5071663;28;20043;-46
2021/06/16 03:48:46;;;;;;;2.25;1.17;;;;;;;9.05;100.00;99576.34;5071539;28;20047;-46
2021/06/16 03:51:50;;;;;;;1.33;0.98;;;;;;;9.02;100.00;99572.47;5072294;28;20047;-46
2021/06/16 03:54:54;;;;;;;0.90;0.90;;;;;;;9.00;100.00;99580.53;5075291;28;20497;-46
2021/06/16 03:57:58;;;;;;;10.32;1.48;;;;;;;9.00;100.00;99571.41;5075548;28;20047;-46
2021/06/16 04:01:03;;;;;;;2.58;0.90;;;;;;;9.04;100.00;99574.78;5075411;28;20047;-46
2021/06/16 04:04:08;;;;;;;0.38;0.30;;;;;;;9.04;100.00;99574.78;5075623;28;20048;-46
2021/06/16 04:07:20;;;;;;;0.68;0.60;;;;;;;9.03;100.00;99568.44;5075382;28;20047;-46
2021/06/16 04:10:25;;;;;;;1.35;1.02;;;;;;;9.06;100.00;99573.06;5075125;28;20044;-46
2021/06/16 04:13:28;;;;;;;2.97;1.42;;;;;;;9.07;100.00;99563.47;5075237;28;20067;-46
2021/06/16 04:16:32;;;;;;;2.10;0.80;;;;;;;9.15;100.00;99566.69;5075154;28;20051;-46
2021/06/16 04:19:36;;;;;;;0.57;0.55;;;;;;;9.25;100.00;99556.28;5074751;28;20055;-46
2021/06/16 04:22:39;;;;;;;1.50;1.00;;;;;;;9.37;100.00;99558.06;5074932;28;20071;-46
2021/06/16 04:25:43;;;;;;;1.27;0.73;;;;;;;9.50;100.00;99555.78;5074969;28;20047;-46
2021/06/16 04:28:47;;;;;;;3.97;0.77;;;;;;;9.60;100.00;99548.91;5074979;28;20039;-46
2021/06/16 04:31:50;;;;;;;0.65;0.65;;;;;;;9.66;100.00;99555.34;5074936;28;20048;-46
2021/06/16 04:34:54;;;;;;;1.70;0.80;;;;;;;9.70;100.00;99542.78;5074842;28;20051;-46
2021/06/16 04:37:57;;;;;;;10.82;0.57;;;;;;;9.72;100.00;99542.31;5074784;28;20063;-46
2021/06/16 04:41:02;;;;;;;1.48;0.90;;;;;;;9.72;100.00;99540.28;5074775;28;20496;-46
2021/06/16 04:44:06;;;;;;;2.33;0.47;;;;;;;9.77;100.00;99533.31;5074748;28;20048;-46
2021/06/16 04:47:09;;;;;;;2.38;1.20;;;;;;;9.78;100.00;99532.06;5074884;28;20059;-46
2021/06/16 04:50:14;;;;;;;0.85;0.70;;;;;;;9.78;100.00;99526.50;5074764;28;20047;-46
2021/06/16 04:53:18;;;;;;;1.30;0.65;;;;;;;9.79;100.00;99551.06;5074597;28;20047;-46
2021/06/16 04:56:22;;;;;;;3.15;0.73;;;;;;;9.82;100.00;99532.66;5074222;28;20052;-46
2021/06/16 04:59:25;;;;;;;7.68;0.90;;;;;;;9.86;100.00;99534.00;5074293;28;20512;-46
2021/06/16 05:02:28;;;;;;;1.95;0.85;;;;;;;9.88;100.00;99536.28;5074193;28;20055;-46
2021/06/16 05:05:32;;;;;;;0.75;0.45;;;;;;;9.82;100.00;99538.19;5073747;28;20055;-46
2021/06/16 05:08:35;;;;;;;0.80;0.75;;;;;;;9.85;100.00;99523.34;5074051;28;20071;-46
2021/06/16 05:11:38;;;;;;;1.98;0.73;;;;;;;9.82;100.00;99522.28;5074104;28;20405;-46
2021/06/16 05:14:41;;;;;;;1.92;0.75;;;;;;;9.68;100.00;99506.34;5073230;28;20115;-46
2021/06/16 05:17:45;;;;;;;1.65;1.23;;;;;;;9.61;100.00;99508.75;5074034;28;20053;-46
2021/06/16 05:20:49;;;;;;;0.60;0.52;;;;;;;9.64;100.00;99508.56;5073903;28;20516;-46
2021/06/16 05:23:52;;;;;;;1.77;0.80;;;;;;;9.59;100.00;99508.47;5073830;28;20051;-46
2021/06/16 05:26:56;;;;;;;0.93;0.85;;;;;;;9.59;100.00;99514.03;5073845;28;20047;-46
2021/06/16 05:29:59;;;;;;;1.30;0.63;;;;;;;9.61;100.00;99517.88;5073923;28;20389;-46
2021/06/16 05:33:03;;;;;;;0.47;0.47;;;;;;;9.68;100.00;99514.69;5073583;28;20051;-46
2021/06/16 05:36:08;;;;;;;0.93;0.75;;;;;;;9.77;100.00;99516.63;5073696;28;20047;-46
2021/06/16 05:39:12;;;;;;;1.67;0.65;;;;;;;9.85;100.00;99506.66;5073577;28;20047;-46
2021/06/16 05:42:15;;;;;;;1.42;0.77;;;;;;;9.93;100.00;99499.47;5073457;28;20051;-46
2021/06/16 05:45:19;;;;;;;1.17;1.00;;;;;;;10.03;100.00;99508.50;5073418;28;20047;-47
2021/06/16 05:48:23;;;;;;;2.28;0.63;;;;;;;10.16;100.00;99509.75;5073317;28;20048;-46
2021/06/16 05:51:26;;;;;;;1.17;0.40;;;;;;;10.30;100.00;99508.97;5073337;28;20044;-46
2021/06/16 05:54:30;;;;;;;2.13;0.65;;;;;;;10.33;100.00;99502.44;5073410;28;20416;-46
2021/06/16 05:57:33;;;;;;;1.08;0.55;;;;;;;10.43;100.00;99506.66;5073124;28;20079;-46
2021/06/16 06:00:36;;;;;;;1.98;0.65;;;;;;;10.64;100.00;99505.44;5072981;28;20051;-47
2021/06/16 06:03:42;;;;;;;0.80;0.43;;;;;;;10.73;100.00;99510.13;5072936;28;20079;-46
2021/06/16 06:06:45;;;;;;;1.00;0.65;;;;;;;10.84;100.00;99509.50;5073099;28;20071;-46
2021/06/16 06:09:49;;;;;;;2.47;1.23;;;;;;;10.98;100.00;99497.56;5073029;28;20040;-47
2021/06/16 06:12:55;;;;;;;1.17;0.82;;;;;;;11.25;100.00;99494.34;5072978;28;20056;-46
2021/06/16 06:15:58;;;;;;;0.60;0.60;;;;;;;11.35;100.00;99504.06;5072750;28;20047;-46
2021/06/16 06:19:02;;;;;;;0.40;0.20;;;;;;;11.52;100.00;99498.72;5072844;28;20063;-46
2021/06/16 06:22:05;;;;;;;0.50;0.35;;;;;;;11.74;100.00;99502.50;5072822;28;20044;-47
2021/06/16 06:25:10;;;;;;;1.85;0.22;;;;;;;11.99;100.00;99493.38;5072781;28;20048;-46
2021/06/16 06:28:14;;;;;;;6.13;0.40;;;;;;;12.13;100.00;99492.47;5072507;28;20052;-46
2021/06/16 06:31:17;;;;;;;0.60;0.50;;;;;;;12.33;100.00;99485.25;5072584;28;20055;-44
2021/06/16 06:34:21;;;;;;;8.63;1.40;;;;;;;12.46;100.00;99494.00;5072425;28;20055;-44
2021/06/16 06:37:25;;;;;;;1.30;0.55;;;;;;;12.59;100.00;99485.97;5072365;28;20048;-46
2021/06/16 06:40:28;;;;;;;0.98;0.55;;;;;;;12.66;100.00;99477.13;5072537;28;20047;-46
2021/06/16 06:43:32;;;;;;;4.30;0.60;;;;;;;12.76;100.00;99484.78;5072230;28;20048;-45
2021/06/16 06:46:35;;;;;;;0.65;0.43;;;;;;;12.92;100.00;99467.38;5072079;28;20043;-47
2021/06/16 06:49:38;;;;;;;0.50;0.30;;;;;;;13.13;100.00;99476.38;5072164;28;20071;-46
2021/06/16 06:52:44;;;;;;;4.55;1.25;;;;;;;13.23;100.00;99471.34;5072133;28;20394;-46
2021/06/16 06:55:47;;;;;;;5.32;0.45;;;;;;;13.38;100.00;99474.69;5072017;28;20060;-46
2021/06/16 06:58:51;;;;;;;0.95;0.70;;;;;;;13.57;100.00;99468.13;5072218;28;20051;-47
2021/06/16 07:01:54;;;;;;;1.48;0.40;;;;;;;13.60;100.00;99467.09;5072141;28;20047;-47
2021/06/16 07:04:58;;;;;;;1.02;0.30;;;;;;;13.73;100.00;99468.66;5072447;28;20068;-46
2021/06/16 07:08:01;;;;;;;4.05;0.38;;;;;;;13.84;100.00;99460.28;5072180;28;20051;-46
2021/06/16 07:11:05;;;;;;;11.68;0.55;;;;;;;13.96;100.00;99451.38;5072152;28;20044;-46
2021/06/16 07:14:08;;;;;;;4.18;1.00;;;;;;;14.05;100.00;99450.38;5072191;28;20059;-46
2021/06/16 07:17:12;;;;;;;2.58;0.80;;;;;;;14.11;100.00;99446.28;5072126;28;20043;-47
2021/06/16 07:20:16;;;;;;;1.40;0.47;;;;;;;14.25;100.00;99441.72;5071889;28;20051;-46
2021/06/16 07:23:20;;;;;;;2.83;0.63;;;;;;;14.35;100.00;99445.78;5072135;28;20401;-47
2021/06/16 07:26:23;;;;;;;6.47;0.75;;;;;;;14.61;100.00;99442.69;5071878;28;20048;-46
2021/06/16 07:29:27;;;;;;;1.15;0.30;;;;;;;14.85;100.00;99438.03;5075902;28;20039;-46
2021/06/16 07:32:30;;;;;;;4.75;0.38;;;;;;;15.03;100.00;99431.84;5076099;28;20048;-46
2021/06/16 07:35:33;;;;;;;1.30;0.52;;;;;;;15.23;100.00;99421.53;5075734;28;20047;-46
2021/06/16 07:38:36;;;;;;;0.40;0.40;;;;;;;15.40;100.00;99422.22;5074962;28;20043;-46
2021/06/16 07:41:40;;;;;;;1.20;0.45;;;;;;;15.60;100.00;99416.25;5075588;28;20048;-46
2021/06/16 07:44:43;;;;;;;5.30;0.68;;;;;;;15.78;100.00;99410.78;5075717;28;20130;-47
2021/06/16 07:47:47;;;;;;;1.65;0.17;;;;;;;15.90;100.00;99411.44;5075705;28;20047;-46
2021/06/16 07:50:50;;;;;;;4.18;0.52;;;;;;;16.14;100.00;99419.13;5075914;28;20043;-46
2021/06/16 07:53:54;;;;;;;3.30;0.93;;;;;;;16.39;100.00;99418.66;5075484;28;20504;-46
2021/06/16 07:56:57;;;;;;;6.00;0.75;;;;;;;16.59;100.00;99425.88;5075425;28;20055;-46
2021/06/16 08:00:00;;;;;;;3.35;0.50;;;;;;;16.73;100.00;99415.50;5075331;28;20051;-46
2021/06/16 08:03:04;;;;;;;7.13;0.55;;;;;;;16.85;100.00;99411.28;5075520;28;20048;-46
2021/06/16 08:06:07;;;;;;;1.60;0.30;;;;;;;16.97;100.00;99409.84;5075462;28;20047;-46
2021/06/16 08:09:11;;;;;;;1.27;0.40;;;;;;;17.10;100.00;99418.38;5075482;28;20047;-47
2021/06/16 08:12:16;;;;;;;6.65;0.70;;;;;;;17.32;100.00;99412.47;5075257;28;20072;-46
2021/06/16 08:15:19;;;;;;;1.50;0.40;;;;;;;17.71;100.00;99421.16;5075139;28;20052;-46
2021/06/16 08:18:23;;;;;;;4.35;0.47;;;;;;;17.94;100.00;99422.31;5075057;28;20504;-46
2021/06/16 08:21:27;;;;;;;1.33;0.25;;;;;;;18.12;100.00;99415.09;5074993;28;20500;-46
2021/06/16 08:24:30;;;;;;;0.60;0.17;;;;;;;18.33;100.00;99412.44;5075166;28;20397;-46
2021/06/16 08:27:34;;;;;;;5.63;0.20;;;;;;;18.51;100.00;99400.34;5074966;28;20523;-45
2021/06/16 08:30:37;;;;;;;0.93;0.22;;;;;;;18.63;100.00;99404.47;5074722;28;20060;-46
2021/06/16 08:33:40;;;;;;;3.92;0.30;;;;;;;18.79;100.00;99404.16;5074792;28;20047;-46
2021/06/16 08:36:45;;;;;;;0.60;0.28;;;;;;;18.96;100.00;99423.56;5074798;28;20047;-46
2021/06/16 08:39:49;;;;;;;0.20;0.10;;;;;;;19.07;100.00;99420.50;5074844;28;20040;-46
2021/06/16 08:42:52;;;;;;;0.30;0.20;;;;;;;19.24;100.00;99415.28;5074950;28;20047;-46
2021/06/16 08:45:59;;;;;;;3.00;0.30;;;;;;;19.43;100.00;99404.59;5075259;28;20405;-46
2021/06/16 08:49:05;;;;;;;2.25;0.20;;;;;;;19.59;100.00;99392.19;5074497;28;20067;-44
2021/06/16 08:52:08;;;;;;;4.07;0.20;;;;;;;19.78;100.00;99385.56;5074908;28;20048;-46
2021/06/16 08:55:19;;;;;;;2.80;0.43;;;;;;;19.90;100.00;99395.31;5074581;28;20142;-44
2021/06/16 08:58:22;;;;;;;0.10;0.00;;;;;;;19.95;100.00;99403.63;5074548;28;20051;-47
2021/06/16 09:01:26;;;;;;;1.25;0.10;;;;;;;20.06;100.00;99385.63;5074495;28;20404;-46
2021/06/16 09:04:46;;;;;;;1.48;0.10;;;;;;;20.22;100.00;99392.97;5074177;28;20056;-46
2021/06/16 09:07:50;;;;;;;2.47;0.45;;;;;;;20.39;100.00;99390.47;5074195;28;20051;-47
2021/06/16 09:10:54;;;;;;;2.72;0.20;;;;;;;20.52;100.00;99393.19;5074497;28;20051;-47
2021/06/16 09:14:20;;;;;;;0.47;0.20;;;;;;;20.58;100.00;99378.88;5074142;28;20063;-46
2021/06/16 09:17:24;;;;;;;1.42;0.10;;;;;;;20.69;100.00;99375.75;5074090;28;20059;-46
2021/06/16 09:20:30;;;;;;;0.52;0.10;;;;;;;20.80;98.68;99378.25;5073932;28;20103;-46
2021/06/16 09:23:34;;;;;;;0.20;0.20;;;;;;;20.93;100.00;99376.06;5073821;28;20052;-47
2021/06/16 09:26:40;;;;;;;1.27;0.32;;;;;;;21.10;97.59;99370.72;5073769;28;20435;-47
2021/06/16 09:29:43;;;;;;;1.35;0.10;;;;;;;21.16;97.69;99370.53;5073722;28;20051;-47
2021/06/16 09:32:47;;;;;;;1.02;0.10;;;;;;;21.23;96.42;99369.03;5073666;28;20044;-47
2021/06/16 09:35:51;;;;;;;0.40;0.10;;;;;;;21.32;93.76;99371.34;5073964;28;20539;-47
2021/06/16 09:38:54;;;;;;;6.40;0.57;;;;;;;21.39;91.91;99364.94;5073686;28;20048;-45
2021/06/16 09:42:01;;;;;;;4.75;0.10;;;;;;;21.48;91.63;99367.25;5073440;28;20066;-47
2021/06/16 09:45:05;;;;;;;0.25;0.10;;;;;;;21.61;93.49;99364.25;5073542;28;20051;-45
2021/06/16 09:48:32;;;;;;;0.30;0.10;;;;;;;21.64;91.99;99363.13;5073532;28;20047;-47
2021/06/16 09:51:35;;;;;;;0.10;0.00;;;;;;;21.53;86.54;99352.13;5072850;28;20043;-47
2021/06/16 09:54:39;;;;;;;0.45;0.20;;;;;;;21.57;91.41;99358.22;5072936;28;20043;-47
2021/06/16 09:57:58;;;;;;;3.63;0.55;;;;;;;21.77;90.38;99354.44;5072541;28;20047;-45
2021/06/16 10:01:02;;;;;;;1.08;0.43;;;;;;;21.94;91.10;99357.50;5072298;28;20059;-47
2021/06/16 10:04:05;;;;;;;3.83;0.20;;;;;;;21.99;86.38;99358.63;5073239;28;20051;-44
2021/06/16 10:07:29;;;;;;;3.85;0.00;;;;;;;22.00;87.43;99355.25;5073520;28;20047;-45
2021/06/16 10:10:33;;;;;;;1.35;0.10;;;;;;;22.04;91.41;99360.53;5072791;28;20524;-45
2021/06/16 10:13:37;;;;;;;0.20;0.00;;;;;;;22.12;88.56;99350.72;5072788;28;20047;-44
2021/06/16 10:16:41;;;;;;;0.00;0.00;;;;;;;22.26;84.26;99352.00;5072649;28;20047;-44
2021/06/16 10:19:46;;;;;;;0.20;0.00;;;;;;;22.44;82.17;99353.69;5072690;28;20504;-44
2021/06/16 10:22:50;;;;;;;0.00;0.00;;;;;;;22.49;82.56;99361.28;5072653;28;20508;-45
2021/06/16 10:26:14;;;;;;;4.47;1.00;;;;;;;22.60;78.44;99355.22;5072813;28;20547;-44
2021/06/16 10:29:19;;;;;;;0.85;0.22;;;;;;;22.57;76.96;99355.56;5073126;28;20514;-44
2021/06/16 10:32:22;;;;;;;2.65;0.10;;;;;;;22.50;76.78;99351.41;5072836;28;20040;-46
2021/06/16 10:35:29;;;;;;;3.13;0.20;;;;;;;22.51;80.37;99347.25;5072709;28;20103;-44
2021/06/16 10:38:32;;;;;;;0.63;0.38;;;;;;;22.64;80.47;99349.16;5072413;28;20067;-46
2021/06/16 10:41:39;;;;;;;1.17;0.10;;;;;;;22.72;81.08;99351.97;5072196;28;20048;-46
2021/06/16 10:44:42;;;;;;;0.20;0.17;;;;;;;22.85;80.77;99340.41;5072333;28;20401;-46
2021/06/16 10:48:06;;;;;;;0.25;0.10;;;;;;;23.05;84.11;99342.19;5072453;28;20043;-46
2021/06/16 10:51:21;;;;;;;1.75;0.43;;;;;;;23.13;84.91;99326.63;5072690;28;20055;-44
2021/06/16 10:54:28;;;;;;;9.73;1.08;;;;;;;23.22;83.26;99316.72;5071430;28;20052;-46
2021/06/16 10:57:33;;;;;;;0.47;0.00;;;;;;;23.26;83.39;99325.59;5072476;28;20047;-46
2021/06/16 11:00:36;;;;;;;0.13;0.00;;;;;;;23.30;86.74;99311.78;5072300;28;20055;-47
2021/06/16 11:03:52;;;;;;;0.40;0.00;;;;;;;23.39;86.24;99305.47;5072012;28;20401;-46
2021/06/16 11:06:56;;;;;;;0.47;0.10;;;;;;;23.49;87.50;99306.38;5072379;28;20047;-47
2021/06/16 11:10:02;;;;;;;4.15;0.10;;;;;;;23.50;84.64;99299.34;5072171;28;20047;-47
2021/06/16 11:13:05;;;;;;;1.67;0.20;;;;;;;23.47;84.16;99297.69;5072302;28;20051;-47
2021/06/16 11:16:40;;;;;;;0.30;0.10;;;;;;;23.51;80.90;99292.34;5071441;28;20051;-47
2021/06/16 11:19:44;;;;;;;1.85;0.20;;;;;;;23.66;83.89;99289.38;5071922;28;20051;-47
2021/06/16 11:23:01;;;;;;;0.40;0.00;;;;;;;23.63;78.13;99287.69;5071112;28;20052;-47
2021/06/16 11:26:05;;;;;;;0.40;0.10;;;;;;;23.49;77.67;99289.31;5072028;28;20048;-47
2021/06/16 11:29:08;;;;;;;0.65;0.00;;;;;;;23.56;81.30;99297.06;5072221;28;20047;-47
2021/06/16 11:32:12;;;;;;;6.03;0.38;;;;;;;23.53;80.17;99288.91;5072110;28;20535;-47
2021/06/16 11:35:37;;;;;;;0.75;0.40;;;;;;;23.67;80.81;99293.72;5071906;28;20051;-47
2021/06/16 11:39:04;;;;;;;0.20;0.00;;;;;;;23.87;83.84;99286.94;5071717;28;20052;-47
2021/06/16 11:42:12;;;;;;;0.10;0.00;;;;;;;23.99;81.12;99279.44;5071875;28;20040;-47
2021/06/16 11:45:16;;;;;;;0.60;0.10;;;;;;;23.92;83.97;99280.25;5071782;28;20102;-47
2021/06/16 11:48:19;;;;;;;5.40;0.30;;;;;;;23.94;82.67;99288.22;5072047;28;20047;-47
2021/06/16 11:51:32;;;;;;;0.10;0.00;;;;;;;24.05;85.68;99285.69;5071742;28;20043;-46
2021/06/16 11:54:38;;;;;;;4.00;0.40;;;;;;;24.13;84.08;99282.00;5071284;28;20051;-47
2021/06/16 11:57:41;;;;;;;2.83;0.10;;;;;;;24.30;88.35;99279.19;5071500;28;20543;-47
2021/06/16 12:00:44;;;;;;;0.10;0.00;;;;;;;24.25;87.17;99271.63;5071549;28;20047;-47
2021/06/16 12:03:58;;;;;;;0.40;0.00;;;;;;;24.38;90.26;99268.47;5071514;28;20068;-46
2021/06/16 12:07:02;;;;;;;0.32;0.00;;;;;;;24.39;87.99;99259.31;5071676;28;20397;-46
2021/06/16 12:10:06;;;;;;;0.20;0.00;;;;;;;24.34;86.27;99257.50;5071660;28;20088;-46
2021/06/16 12:13:09;;;;;;;3.63;0.10;;;;;;;24.32;90.72;99263.00;5073028;28;20043;-46
2021/06/16 12:16:23;;;;;;;6.35;0.10;;;;;;;24.44;93.56;99266.88;5075359;28;20420;-46
2021/06/16 12:19:33;;;;;;;1.27;0.05;;;;;;;24.55;89.30;99259.91;5075582;28;20047;-46
2021/06/16 12:22:36;;;;;;;0.85;0.20;;;;;;;24.65;89.57;99252.94;5074973;28;20071;-47
2021/06/16 12:25:39;;;;;;;1.85;0.00;;;;;;;24.73;91.67;99252.88;5074924;28;20051;-46
2021/06/16 12:28:48;;;;;;;1.42;0.10;;;;;;;24.84;88.45;99252.34;5075134;28;20500;-46
2021/06/16 12:31:54;;;;;;;0.47;0.30;;;;;;;24.71;85.42;99244.91;5075047;28;20048;-46
2021/06/16 12:38:38;;;;;;;0.98;0.20;;;;;;;24.86;91.95;99241.16;5077081;28;20496;-46
2021/06/16 12:41:48;;;;;;;5.63;0.20;;;;;;;24.80;88.52;99237.78;5074732;28;20055;-46
2021/06/16 12:44:52;;;;;;;0.10;0.00;;;;;;;24.85;89.07;99231.09;5074781;28;20051;-46
2021/06/16 12:48:01;;;;;;;1.40;0.43;;;;;;;24.88;96.48;99241.31;5074455;28;20048;-47
2021/06/16 12:51:05;;;;;;;0.10;0.00;;;;;;;25.02;92.91;99233.13;5075213;28;20043;-47
2021/06/16 12:54:21;;;;;;;1.85;0.35;;;;;;;24.75;92.71;99241.66;5074689;28;20047;-46
2021/06/16 12:57:25;;;;;;;0.03;0.00;;;;;;;24.79;92.28;99222.81;5074342;28;20515;-48
2021/06/16 13:00:31;;;;;;;0.05;0.00;;;;;;;24.86;92.70;99226.91;5074438;28;20048;-47
2021/06/16 13:03:45;;;;;;;0.13;0.00;;;;;;;25.10;91.56;99233.78;5074149;28;20063;-47
2021/06/16 13:06:55;;;;;;;0.75;0.00;;;;;;;25.21;90.39;99228.28;5074462;28;20043;-47
2021/06/16 13:10:10;;;;;;;0.10;0.05;;;;;;;25.40;90.79;99225.50;5074245;28;20051;-48
2021/06/16 13:13:13;;;;;;;0.43;0.00;;;;;;;25.09;91.15;99215.16;5074234;28;20059;-48
2021/06/16 13:16:24;;;;;;;2.63;0.00;;;;;;;25.20;91.73;99217.47;5074365;28;20063;-48
2021/06/16 13:19:28;;;;;;;0.10;0.00;;;;;;;25.20;91.52;99215.38;5073964;28;20044;-48
2021/06/16 13:22:37;;;;;;;0.90;0.00;;;;;;;25.36;89.06;99213.06;5073940;28;20055;-48
2021/06/16 13:25:42;;;;;;;0.70;0.10;;;;;;;24.96;93.05;99226.94;5073167;28;20043;-48
2021/06/16 13:28:57;;;;;;;0.75;0.00;;;;;;;24.91;94.49;99210.84;5074009;28;20043;-47
2021/06/16 13:32:00;;;;;;;0.20;0.00;;;;;;;25.28;93.37;99216.00;5073973;28;20496;-47
2021/06/16 13:35:05;;;;;;;13.95;0.10;;;;;;;24.63;92.05;99215.00;5073833;28;20055;-47
2021/06/16 13:38:09;;;;;;;0.10;0.00;;;;;;;24.39;95.51;99213.03;5073815;28;20052;-48
2021/06/16 13:41:13;;;;;;;0.10;0.00;;;;;;;24.46;92.88;99217.88;5073751;28;20051;-47
2021/06/16 13:44:18;;;;;;;0.05;0.00;;;;;;;24.92;92.23;99204.59;5072633;28;20044;-48
2021/06/16 13:47:21;;;;;;;1.33;0.00;;;;;;;25.71;93.70;99205.09;5073504;28;20043;-48
2021/06/16 13:50:25;;;;;;;0.73;0.10;;;;;;;25.70;89.35;99203.59;5073312;28;20115;-47
2021/06/16 13:53:28;;;;;;;0.30;0.00;;;;;;;25.90;87.66;99193.72;5073210;28;20059;-48
2021/06/16 13:56:32;;;;;;;0.82;0.10;;;;;;;26.04;86.92;99197.63;5072982;28;20060;-48
2021/06/16 13:59:35;;;;;;;4.65;0.00;;;;;;;26.22;85.71;99190.47;5073064;28;20051;-47
2021/06/16 14:02:42;;;;;;;0.35;0.10;;;;;;;26.03;86.70;99199.00;5073388;28;20512;-48
2021/06/16 14:05:46;;;;;;;0.10;0.00;;;;;;;26.08;88.48;99180.81;5073538;28;20396;-48
2021/06/16 14:08:49;;;;;;;0.20;0.00;;;;;;;26.34;88.49;99197.06;5073198;28;20052;-46
2021/06/16 14:11:52;;;;;;;0.38;0.00;;;;;;;26.45;86.43;99185.06;5073121;28;20421;-48
2021/06/16 14:14:56;;;;;;;0.10;0.00;;;;;;;26.03;90.26;99184.72;5073051;28;20063;-47
2021/06/16 14:17:59;;;;;;;0.10;0.10;;;;;;;25.37;89.65;99181.09;5072955;28;20059;-46
2021/06/16 14:21:03;;;;;;;0.10;0.00;;;;;;;24.88;93.54;99184.34;5072933;28;20060;-46
2021/06/16 14:24:06;;;;;;;1.23;0.20;;;;;;;24.73;96.55;99181.66;5072890;28;20039;-46
2021/06/16 14:27:10;;;;;;;0.17;0.00;;;;;;;24.63;100.00;99175.91;5072962;28;20051;-45
2021/06/16 14:30:16;;;;;;;0.40;0.13;;;;;;;24.88;97.77;99178.63;5072648;28;20039;-47
2021/06/16 14:33:20;;;;;;;0.32;0.10;;;;;;;25.46;94.76;99191.06;5072567;28;20044;-48
2021/06/16 14:36:23;;;;;;;0.38;0.00;;;;;;;25.93;92.60;99181.09;5072435;28;20047;-47